• Join FlightAware (Why Join?)
  • Login
  • US Flag 
10:59AM EDT


 

Airport Tracker/Info


-or-


 

Live Flight TrackerFlight Track Log ✈ CPA879 ✈ 07-May-2013 ✈ KSFO - VHHH / HKG

Flight Track Log - Related Links

Times and Time Zones

All times are in EDT time to prevent confusion due to time zone crossing. See the CPA879 flight status page for this flight to view local times or setup timezone preferences in your user account.

Time Position Orientation Groundspeed Altitude Reporting Facility
EDT Latitude Longitude Course Direction KTS MPH feet Rate Location/Type
05:13PM 37.7670 -122.6560 303° West 310 357 5,800  Level FlightAware
05:13PM 37.7810 -122.6810 305° West 312 359 6,400 2,100 Climbing FlightAware
05:13PM 37.8000 -122.7170 304° West 319 367 7,200 2,040 Climbing FlightAware
05:14PM 37.8260 -122.7650 304° West 324 373 8,300 2,280 Climbing FlightAware
05:14PM 37.8510 -122.8110 305° West 315 362 9,500 1,740 Climbing FlightAware
05:15PM 37.8720 -122.8510 304° West 320 368 9,900 1,080 Climbing FlightAware
05:15PM 37.9050 -122.9120 304° West 341 392 10,700 1,020 Climbing FlightAware
05:16PM 37.9490 -122.9920 305° West 378 435 11,400 840 Climbing FlightAware
05:17PM 37.9860 -123.0620 304° West 406 467 11,900 1,380 Climbing FlightAware
05:18PM 38.0430 -123.1560 308° West 418 481 13,400 1,860 Climbing FlightAware
05:18PM 38.0910 -123.2350 308° West 427 491 14,600 1,800 Climbing FlightAware
05:19PM 38.1440 -123.3200 308° West 431 496 16,000 1,380 Climbing FlightAware
05:20PM 38.2020 -123.4170 307° West 433 498 16,800 480 Climbing FlightAware
05:21PM 38.2430 -123.4860 307° West 433 498 16,800  Level FlightAware
05:21PM 38.2950 -123.5730 307° West 433 498 16,800  Level FlightAware
05:22PM 38.3360 -123.6420 307° West 433 498 16,800  Level FlightAware
05:23PM 38.3770 -123.7120 307° West 433 498 16,800  Level FlightAware
05:23PM 38.4180 -123.7810 307° West 433 498 16,800 6,180 Level FlightAware
05:24PM 38.4939 -123.8881 307° West 463 533 22,600 5,520 Climbing Oakland Center
05:25PM 38.5742 -124.0192 308° West 469 540 23,900 1,080 Climbing Oakland Center
05:26PM 38.6536 -124.1536 307° West 472 543 24,900 900 Climbing Oakland Center
05:27PM 38.7372 -124.2900 308° West 482 555 25,800 840 Climbing Oakland Center
05:28PM 38.8206 -124.4292 308° West 489 563 26,700 900 Climbing Oakland Center
05:29PM 38.9047 -124.5708 307° West 496 571 27,700 1,080 Climbing Oakland Center
05:30PM 38.9886 -124.7125 307° West 497 572 28,900 1,260 Climbing Oakland Center
05:31PM 39.0886 -124.8792 308° West 492 566 30,300 960 Climbing Oakland Center
05:32PM 39.1700 -125.0147 308° West 487 560 30,900 300 Climbing Oakland Center
05:33PM 39.2506 -125.1533 307° West 484 557 31,000  Climbing Oakland Center
05:34PM 39.3319 -125.2928 307° West 486 559 31,000  Level Oakland Center
05:35PM 39.4133 -125.4339 307° West 483 556 31,000  Level Oakland Center
05:36PM 39.4936 -125.5725 307° West 482 555 31,000  Level Oakland Center
05:37PM 39.5758 -125.7131 307° West 485 558 31,000  Level Oakland Center
05:38PM 39.6569 -125.8533 307° West 486 559 31,000  Level Oakland Center
05:39PM 39.7367 -125.9933 307° West 484 557 31,000  Level Oakland Center
05:40PM 39.8169 -126.1361 306° West 487 560 31,000  Level Oakland Center
05:41PM 39.8969 -126.2792 306° West 488 562 31,000  Level Oakland Center
05:42PM 39.9783 -126.4197 307° West 488 562 31,000  Level Oakland Center
05:43PM 40.0742 -126.5914 306° West 488 562 31,000  Level Oakland Center
05:44PM 40.1536 -126.7342 306° West 487 560 31,000  Level Oakland Center
05:45PM 40.2303 -126.8725 306° West 486 559 31,000  Level Oakland Center
05:47PM 40.3375 -127.0903 308° West  Level FlightAware Approximate
05:50PM 40.6167 -127.5333 308° West 481 554 31,000  Level Oakland Oceanic (ODAPS)
05:51PM 40.6833 -127.6667 308° West 481 554 31,000  Level Oakland Oceanic (ODAPS)
05:54PM 40.9215 -128.0814 308° West  Level FlightAware Approximate
05:55PM 41.0043 -128.2244 308° West  Level FlightAware Approximate
05:55PM 41.0000 -128.2000 307° West 495 570 31,000  Level Oakland Oceanic (ODAPS)
05:55PM 41.0000 -128.2000 307° West 490 564 31,000  Level Oakland Oceanic (ODAPS)
05:56PM 41.0836 -128.3440 307° West 481 554 31,000  Level FlightAware Transoceanic
05:57PM 41.1534 -128.4794 307° West 481 554 31,000  Level FlightAware Transoceanic
05:58PM 41.2312 -128.6160 307° West 481 554 31,000  Level FlightAware Transoceanic
05:59PM 41.3088 -128.7530 307° West 481 554 31,000  Level FlightAware Transoceanic
05:59PM 41.4167 -128.9333 307° West 496 571 31,000  Level Oakland Oceanic (ODAPS)
06:00PM 41.3863 -128.8902 307° West 481 554 31,000  Level FlightAware Transoceanic
06:01PM 41.5035 -129.0930 307° West 495 570 31,000  Level FlightAware Transoceanic
06:02PM 41.5868 -129.2432 306° West 495 570 31,000  Level FlightAware Transoceanic
06:03PM 41.6698 -129.3938 306° West 495 570 31,000  Level FlightAware Transoceanic
06:04PM 41.7527 -129.5448 306° West 495 570 31,000  Level FlightAware Transoceanic
06:05PM 41.8353 -129.6961 306° West 495 570 31,000  Level FlightAware Transoceanic
06:05PM 41.8167 -129.6667 307° West 505 581 31,000  Level Oakland Oceanic (ODAPS)
06:06PM 41.9173 -129.8464 306° West 496 571 31,000  Level FlightAware Transoceanic
06:07PM 42.0000 -130.0000 296° West 496 571 31,000  Level FlightAware Transoceanic
06:07PM 42.0000 -130.0000 296° West 505 581 31,000  Level Oakland Oceanic (ODAPS)
06:08PM 42.0610 -130.1697 296° West 496 571 31,000  Level FlightAware Transoceanic
06:09PM 42.1217 -130.3398 296° West 496 571 31,000  Level FlightAware Transoceanic
06:10PM 42.1822 -130.5102 296° West 496 571 31,000  Level FlightAware Transoceanic
06:10PM 42.1667 -130.4833 296° West 513 590 31,000  Level Oakland Oceanic (ODAPS)
06:11PM 42.2467 -130.6933 295° West 505 581 31,000  Level FlightAware Transoceanic
06:11PM 42.2833 -130.8000 295° West 517 595 31,000  Level Oakland Oceanic (ODAPS)
06:12PM 42.3078 -130.8675 295° West 505 581 31,000  Level FlightAware Transoceanic
06:12PM 42.3000 -130.8500 295° West 517 595 31,000  Level Oakland Oceanic (ODAPS)
06:13PM 42.3620 -131.0233 295° West 505 581 31,000  Level FlightAware Transoceanic
06:14PM 42.4215 -131.1950 295° West 505 581 31,000  Level FlightAware Transoceanic
06:15PM 42.4807 -131.3671 295° West 505 581 31,000  Level FlightAware Transoceanic
06:16PM 42.5329 -131.5352 295° West 513 590 31,000  Level FlightAware Transoceanic
06:17PM 42.5930 -131.7117 295° West 513 590 31,000  Level FlightAware Transoceanic
06:18PM 42.6617 -131.9041 295° West 517 595 31,000  Level FlightAware Transoceanic
06:19PM 42.7210 -132.0809 294° West 517 595 31,000  Level FlightAware Transoceanic
06:20PM 42.7800 -132.2581 294° West 517 595 31,000  Level FlightAware Transoceanic
06:21PM 42.8388 -132.4357 294° West 517 595 31,000  Level FlightAware Transoceanic
06:22PM 42.8973 -132.6135 294° West 517 595 31,000  Level FlightAware Transoceanic
06:23PM 42.9556 -132.7918 294° West 517 595 31,000  Level FlightAware Transoceanic
06:24PM 43.0135 -132.9703 294° West 517 595 31,000  Level FlightAware Transoceanic
06:25PM 43.0712 -133.1492 294° West 517 595 31,000  Level FlightAware Transoceanic
06:26PM 43.1286 -133.3284 294° West 517 595 31,000  Level FlightAware Transoceanic
06:26PM 43.1333 -133.3333 294° West 517 595 31,000  Level Oakland Oceanic (ODAPS)
06:27PM 43.1857 -133.5080 293° West 517 595 31,000  Level FlightAware Transoceanic
06:28PM 43.2426 -133.6879 293° West 517 595 31,000  Level FlightAware Transoceanic
06:29PM 43.2991 -133.8681 293° West 517 595 31,000  Level FlightAware Transoceanic
06:30PM 43.3554 -134.0486 293° West 517 595 31,000  Level FlightAware Transoceanic
06:31PM 43.4114 -134.2296 293° West 517 595 31,000  Level FlightAware Transoceanic
06:32PM 43.4710 -134.4150 293° West 517 595 31,000  Level FlightAware Transoceanic
06:33PM 43.5263 -134.5964 293° West 517 595 31,000  Level FlightAware Transoceanic
06:34PM 43.5813 -134.7782 293° West 517 595 31,000  Level FlightAware Transoceanic
06:35PM 43.6360 -134.9603 292° West 517 595 31,000  Level FlightAware Transoceanic
06:36PM 43.6904 -135.1427 292° West 517 595 31,000  Level FlightAware Transoceanic
06:37PM 43.7445 -135.3255 292° West 517 595 31,000  Level FlightAware Transoceanic
06:38PM 43.7983 -135.5086 292° West 517 595 31,000  Level FlightAware Transoceanic
06:39PM 43.8519 -135.6920 292° West 517 595 31,000  Level FlightAware Transoceanic
06:39PM 43.9000 -135.8667 292° West 509 586 31,000  Level Oakland Oceanic (ODAPS)
06:40PM 43.9051 -135.8758 292° West 517 595 31,000  Level FlightAware Transoceanic
06:41PM 43.9581 -136.0598 292° West 517 595 31,000  Level FlightAware Transoceanic
06:42PM 44.0107 -136.2442 292° West 517 595 31,000  Level FlightAware Transoceanic
06:43PM 44.0631 -136.4290 291° West 517 595 31,000  Level FlightAware Transoceanic
06:44PM 44.1151 -136.6140 291° West 517 595 31,000  Level FlightAware Transoceanic
06:45PM 44.1669 -136.7994 291° West 517 595 31,000  Level FlightAware Transoceanic
06:46PM 44.2147 -136.9784 291° West 509 586 31,000  Level FlightAware Transoceanic
06:47PM 44.2661 -137.1649 291° West 509 586 31,000  Level FlightAware Transoceanic
06:48PM 44.3172 -137.3516 291° West 509 586 31,000  Level FlightAware Transoceanic
06:49PM 44.3680 -137.5387 291° West 509 586 31,000  Level FlightAware Transoceanic
06:50PM 44.4185 -137.7261 291° West 509 586 31,000  Level FlightAware Transoceanic
06:51PM 44.4686 -137.9139 290° West 509 586 31,000  Level FlightAware Transoceanic
06:52PM 44.5185 -138.1019 290° West 509 586 31,000  Level FlightAware Transoceanic
06:53PM 44.5681 -138.2903 290° West 509 586 31,000  Level FlightAware Transoceanic
06:53PM 44.6000 -138.4167 290° West 514 592 31,000  Level Oakland Oceanic (ODAPS)
06:54PM 44.6173 -138.4790 290° West 509 586 31,000  Level FlightAware Transoceanic
06:55PM 44.6662 -138.6680 290° West 509 586 31,000  Level FlightAware Transoceanic
06:56PM 44.7149 -138.8573 290° West 509 586 31,000  Level FlightAware Transoceanic
06:57PM 44.7632 -139.0470 290° West 509 586 31,000  Level FlightAware Transoceanic
06:58PM 44.8112 -139.2370 290° West 509 586 31,000  Level FlightAware Transoceanic
06:59PM 44.8589 -139.4273 289° West 509 586 31,000  Level FlightAware Transoceanic
07:00PM 44.9021 -139.6021 289° West 514 592 31,000  Level FlightAware Transoceanic
07:01PM 44.9512 -139.8009 289° West 514 592 31,000  Level FlightAware Transoceanic
07:02PM 45.0000 -140.0000 297° West 514 592 31,000  Level FlightAware Transoceanic
07:02PM 45.0000 -140.0000 297° West 502 578 31,000  Level Oakland Oceanic (ODAPS)
07:03PM 45.0644 -140.1783 297° West 514 592 31,000  Level FlightAware Transoceanic
07:04PM 45.1285 -140.3571 297° West 514 592 31,000  Level FlightAware Transoceanic
07:05PM 45.1923 -140.5363 297° West 514 592 31,000  Level FlightAware Transoceanic
07:06PM 45.2559 -140.7158 297° West 514 592 31,000  Level FlightAware Transoceanic
07:07PM 45.3192 -140.8958 296° West 514 592 31,000  Level FlightAware Transoceanic
07:07PM 45.3333 -140.9500 296° West 502 578 31,000  Level Oakland Oceanic (ODAPS)
07:08PM 45.3752 -141.0561 296° West 502 578 31,000  Level FlightAware Transoceanic
07:09PM 45.4368 -141.2334 296° West 502 578 31,000  Level FlightAware Transoceanic
07:10PM 45.4981 -141.4112 296° West 502 578 31,000  Level FlightAware Transoceanic
07:11PM 45.5591 -141.5893 296° West 502 578 31,000  Level FlightAware Transoceanic
07:12PM 45.6198 -141.7678 296° West 502 578 31,000  Level FlightAware Transoceanic
07:13PM 45.6973 -142.0097 296° West 502 578 31,000  Level FlightAware Transoceanic
07:14PM 45.7570 -142.1877 296° West 502 578 31,000  Level FlightAware Transoceanic
07:15PM 45.8164 -142.3660 295° West 502 578 31,000  Level FlightAware Transoceanic
07:16PM 45.8755 -142.5447 295° West 502 578 31,000  Level FlightAware Transoceanic
07:17PM 45.9344 -142.7238 295° West 502 578 31,000  Level FlightAware Transoceanic
07:18PM 45.9930 -142.9033 295° West 502 578 31,000  Level FlightAware Transoceanic
07:19PM 46.0513 -143.0831 295° West 502 578 31,000  Level FlightAware Transoceanic
07:20PM 46.1093 -143.2634 295° West 502 578 31,000  Level FlightAware Transoceanic
07:21PM 46.1671 -143.4440 295° West 502 578 31,000  Level FlightAware Transoceanic
07:21PM 46.1667 -143.4500 295° West 504 580 31,000  Level Oakland Oceanic (ODAPS)
07:22PM 46.2245 -143.6250 295° West 502 578 31,000  Level FlightAware Transoceanic
07:23PM 46.2817 -143.8063 294° West 502 578 31,000  Level FlightAware Transoceanic
07:24PM 46.3386 -143.9881 294° West 502 578 31,000  Level FlightAware Transoceanic
07:25PM 46.3952 -144.1702 294° West 502 578 31,000  Level FlightAware Transoceanic
07:26PM 46.4515 -144.3527 294° West 502 578 31,000  Level FlightAware Transoceanic
07:27PM 46.5075 -144.5356 294° West 502 578 31,000  Level FlightAware Transoceanic
07:28PM 46.5628 -144.7237 294° West 504 580 31,000  Level FlightAware Transoceanic
07:29PM 46.6182 -144.9071 294° West 504 580 31,000  Level FlightAware Transoceanic
07:30PM 46.6734 -145.0909 294° West 504 580 31,000  Level FlightAware Transoceanic
07:31PM 46.7282 -145.2752 293° West 504 580 31,000  Level FlightAware Transoceanic
07:32PM 46.7828 -145.4597 293° West 504 580 31,000  Level FlightAware Transoceanic
07:33PM 46.8370 -145.6447 293° West 504 580 31,000  Level FlightAware Transoceanic
07:34PM 46.8910 -145.8300 293° West 504 580 31,000  Level FlightAware Transoceanic
07:35PM 46.9446 -146.0157 293° West 504 580 31,000  Level FlightAware Transoceanic
07:35PM 46.9500 -146.0167 293° West 498 573 31,000  Level Oakland Oceanic (ODAPS)
07:36PM 46.9980 -146.2018 293° West 504 580 31,000  Level FlightAware Transoceanic
07:37PM 47.0510 -146.3882 293° West 504 580 31,000  Level FlightAware Transoceanic
07:38PM 47.1038 -146.5750 292° West 504 580 31,000  Level FlightAware Transoceanic
07:39PM 47.1562 -146.7622 292° West 504 580 31,000  Level FlightAware Transoceanic
07:40PM 47.2083 -146.9498 292° West 504 580 31,000  Level FlightAware Transoceanic
07:41PM 47.2640 -147.1384 292° West 498 573 31,000  Level FlightAware Transoceanic
07:42PM 47.3153 -147.3267 292° West 498 573 31,000  Level FlightAware Transoceanic
07:43PM 47.3662 -147.5153 292° West 498 573 31,000  Level FlightAware Transoceanic
07:44PM 47.4169 -147.7043 292° West 498 573 31,000  Level FlightAware Transoceanic
07:45PM 47.4672 -147.8936 291° West 498 573 31,000  Level FlightAware Transoceanic
07:46PM 47.5172 -148.0833 291° West 498 573 31,000  Level FlightAware Transoceanic
07:47PM 47.5669 -148.2734 291° West 498 573 31,000  Level FlightAware Transoceanic
07:48PM 47.6163 -148.4638 291° West 498 573 31,000  Level FlightAware Transoceanic
07:49PM 47.6654 -148.6546 291° West 498 573 31,000  Level FlightAware Transoceanic
07:49PM 47.6667 -148.6333 290° West 491 565 31,000  Level Oakland Oceanic (ODAPS)
07:50PM 47.7141 -148.8457 291° West 498 573 31,000  Level FlightAware Transoceanic
07:51PM 47.7626 -149.0372 291° West 498 573 31,000  Level FlightAware Transoceanic
07:52PM 47.8107 -149.2291 290° West 498 573 31,000  Level FlightAware Transoceanic
07:53PM 47.8585 -149.4213 290° West 498 573 31,000  Level FlightAware Transoceanic
07:54PM 47.9060 -149.6138 290° West 498 573 31,000  Level FlightAware Transoceanic
07:55PM 47.9534 -149.8037 290° West 491 565 31,000  Level FlightAware Transoceanic
07:56PM 48.0000 -150.0000 291° West 491 565 31,000  Level FlightAware Transoceanic
07:56PM 48.0000 -150.0000 291° West 496 571 31,000  Level Oakland Oceanic (ODAPS)
07:57PM 48.0493 -150.1957 291° West 491 565 31,000  Level FlightAware Transoceanic
07:58PM 48.0982 -150.3918 290° West 491 565 31,000  Level FlightAware Transoceanic
07:59PM 48.1467 -150.5882 290° West 491 565 31,000  Level FlightAware Transoceanic
08:00PM 48.1950 -150.7851 290° West 491 565 31,000  Level FlightAware Transoceanic
08:01PM 48.2429 -150.9823 290° West 491 565 31,000  Level FlightAware Transoceanic
08:02PM 48.2848 -151.1561 290° West 496 571 31,000  Level FlightAware Transoceanic
08:03PM 48.3311 -151.3500 290° West 496 571 31,000  Level FlightAware Transoceanic
08:03PM 48.3000 -151.2500 290° West 496 571 31,000  Level Oakland Oceanic (ODAPS)
08:04PM 48.3771 -151.5443 290° West 496 571 31,000  Level FlightAware Transoceanic
08:05PM 48.4228 -151.7389 289° West 496 571 31,000  Level FlightAware Transoceanic
08:06PM 48.4681 -151.9339 289° West 496 571 31,000  Level FlightAware Transoceanic
08:07PM 48.5131 -152.1292 289° West 496 571 31,000  Level FlightAware Transoceanic
08:08PM 48.5578 -152.3249 289° West 496 571 31,000  Level FlightAware Transoceanic
08:09PM 48.5763 -152.4337 289° West 496 571 31,000  Level FlightAware Transoceanic
08:10PM 48.6212 -152.6323 289° West 496 571 31,000  Level FlightAware Transoceanic
08:11PM 48.6657 -152.8312 289° West 496 571 31,000  Level FlightAware Transoceanic
08:12PM 48.7099 -153.0304 288° West 496 571 31,000  Level FlightAware Transoceanic
08:13PM 48.7537 -153.2300 288° West 496 571 31,000  Level FlightAware Transoceanic
08:14PM 48.7972 -153.4299 288° West 496 571 31,000  Level FlightAware Transoceanic
08:15PM 48.8403 -153.6302 288° West 496 571 31,000  Level FlightAware Transoceanic
08:16PM 48.8831 -153.8308 288° West 496 571 31,000  Level FlightAware Transoceanic
08:17PM 48.9256 -154.0318 288° West 496 571 31,000  Level FlightAware Transoceanic
08:17PM 48.9167 -154.0000 288° West 505 581 31,000  Level Oakland Oceanic (ODAPS)
08:18PM 48.9677 -154.2331 288° West 496 571 31,000  Level FlightAware Transoceanic
08:19PM 49.0094 -154.4348 287° West 496 571 31,000  Level FlightAware Transoceanic
08:20PM 49.0508 -154.6367 287° West 496 571 31,000  Level FlightAware Transoceanic
08:21PM 49.0918 -154.8391 287° West 496 571 31,000  Level FlightAware Transoceanic
08:22PM 49.1325 -155.0417 287° West 496 571 31,000  Level FlightAware Transoceanic
08:23PM 49.1661 -155.2192 287° West 505 581 31,000  Level FlightAware Transoceanic
08:24PM 49.2064 -155.4236 287° West 505 581 31,000  Level FlightAware Transoceanic
08:25PM 49.2463 -155.6283 287° West 505 581 31,000  Level FlightAware Transoceanic
08:26PM 49.2859 -155.8333 286° West 505 581 31,000  Level FlightAware Transoceanic
08:27PM 49.3251 -156.0387 286° West 505 581 31,000  Level FlightAware Transoceanic
08:28PM 49.3640 -156.2444 286° West 505 581 31,000  Level FlightAware Transoceanic
08:29PM 49.4025 -156.4504 286° West 505 581 31,000  Level FlightAware Transoceanic
08:30PM 49.4406 -156.6567 286° West 505 581 31,000  Level FlightAware Transoceanic
08:30PM 49.4667 -156.8167 286° West 496 571 31,000  Level Oakland Oceanic (ODAPS)
08:31PM 49.4784 -156.8634 286° West 505 581 31,000  Level FlightAware Transoceanic
08:32PM 49.5158 -157.0703 285° West 505 581 31,000  Level FlightAware Transoceanic
08:33PM 49.5528 -157.2776 285° West 505 581 31,000  Level FlightAware Transoceanic
08:34PM 49.5895 -157.4852 285° West 505 581 31,000  Level FlightAware Transoceanic
08:35PM 49.6257 -157.6931 285° West 505 581 31,000  Level FlightAware Transoceanic
08:36PM 49.6617 -157.9014 285° West 505 581 31,000  Level FlightAware Transoceanic
08:37PM 49.6904 -158.0816 285° West 496 571 31,000  Level FlightAware Transoceanic
08:38PM 49.7264 -158.2935 285° West 496 571 31,000  Level FlightAware Transoceanic
08:39PM 49.7620 -158.5058 284° West 496 571 31,000  Level FlightAware Transoceanic
08:40PM 49.7971 -158.7183 284° West 496 571 31,000  Level FlightAware Transoceanic
08:41PM 49.8319 -158.9312 284° West 496 571 31,000  Level FlightAware Transoceanic
08:42PM 49.8663 -159.1443 284° West 496 571 31,000  Level FlightAware Transoceanic
08:43PM 49.9003 -159.3578 284° West 496 571 31,000  Level FlightAware Transoceanic
08:44PM 49.9339 -159.5716 284° West 496 571 31,000  Level FlightAware Transoceanic
08:44PM 49.9500 -159.6833 284° West 526 605 31,000  Level Oakland Oceanic (ODAPS)
08:45PM 49.9672 -159.7856 283° West 496 571 31,000  Level FlightAware Transoceanic
08:46PM 50.0000 -160.0000 291° West 496 571 31,000  Level FlightAware Transoceanic
08:46PM 50.0000 -160.0000 291° West 510 587 31,000  Level Oakland Oceanic (ODAPS)
08:47PM 50.0523 -160.2079 291° West 496 571 31,000  Level FlightAware Transoceanic
08:48PM 50.1043 -160.4162 291° West 496 571 31,000  Level FlightAware Transoceanic
08:49PM 50.1559 -160.6249 291° West 496 571 31,000  Level FlightAware Transoceanic
08:50PM 50.2071 -160.8341 291° West 496 571 31,000  Level FlightAware Transoceanic
08:51PM 50.2579 -161.0437 291° West 526 605 31,000  Level FlightAware Transoceanic
08:52PM 50.3019 -161.2270 291° West 510 587 31,000  Level FlightAware Transoceanic
08:53PM 50.3510 -161.4330 290° West 510 587 31,000  Level FlightAware Transoceanic
08:54PM 50.3997 -161.6394 290° West 510 587 31,000  Level FlightAware Transoceanic
08:55PM 50.4480 -161.8463 290° West 510 587 31,000  Level FlightAware Transoceanic
08:56PM 50.4959 -162.0535 290° West 510 587 31,000  Level FlightAware Transoceanic
08:57PM 50.5435 -162.2612 290° West 510 587 31,000  Level FlightAware Transoceanic
08:58PM 50.5908 -162.4693 290° West 510 587 31,000  Level FlightAware Transoceanic
08:58PM 50.6000 -162.5333 290° West 506 582 31,000  Level Oakland Oceanic (ODAPS)
08:59PM 50.6376 -162.6778 289° West 510 587 31,000  Level FlightAware Transoceanic
09:00PM 50.6841 -162.8868 289° West 510 587 31,000  Level FlightAware Transoceanic
09:01PM 50.7302 -163.0961 289° West 510 587 31,000  Level FlightAware Transoceanic
09:02PM 50.7759 -163.3059 289° West 510 587 31,000  Level FlightAware Transoceanic
09:03PM 50.8213 -163.5160 289° West 510 587 31,000  Level FlightAware Transoceanic
09:04PM 50.8662 -163.7266 289° West 510 587 31,000  Level FlightAware Transoceanic
09:05PM 50.9176 -163.9894 288° West 506 582 31,000  Level FlightAware Transoceanic
09:06PM 50.9614 -164.1990 288° West 506 582 31,000  Level FlightAware Transoceanic
09:07PM 51.0050 -164.4090 288° West 506 582 31,000  Level FlightAware Transoceanic
09:08PM 51.0481 -164.6194 288° West 506 582 31,000  Level FlightAware Transoceanic
09:09PM 51.0908 -164.8302 288° West 506 582 31,000  Level FlightAware Transoceanic
09:10PM 51.1332 -165.0414 288° West 506 582 31,000  Level FlightAware Transoceanic
09:11PM 51.1752 -165.2529 287° West 506 582 31,000  Level FlightAware Transoceanic
09:12PM 51.2168 -165.4648 287° West 506 582 31,000  Level FlightAware Transoceanic
09:12PM 51.2167 -165.4333 287° West 505 581 31,000  Level Oakland Oceanic (ODAPS)
09:13PM 51.2580 -165.6772 287° West 506 582 31,000  Level FlightAware Transoceanic
09:14PM 51.2988 -165.8899 287° West 506 582 31,000  Level FlightAware Transoceanic
09:15PM 51.3393 -166.1030 287° West 506 582 31,000  Level FlightAware Transoceanic
09:16PM 51.3793 -166.3164 287° West 506 582 31,000  Level FlightAware Transoceanic
09:17PM 51.4190 -166.5303 286° West 506 582 31,000  Level FlightAware Transoceanic
09:18PM 51.4585 -166.7218 286° West 505 581 31,000  Level FlightAware Transoceanic
09:19PM 51.4974 -166.9379 286° West 505 581 31,000  Level FlightAware Transoceanic
09:20PM 51.5359 -167.1543 286° West 505 581 31,000  Level FlightAware Transoceanic
09:21PM 51.5740 -167.3711 286° West 505 581 31,000  Level FlightAware Transoceanic
09:22PM 51.6118 -167.5883 286° West 505 581 31,000  Level FlightAware Transoceanic
09:23PM 51.6491 -167.8058 285° West 505 581 31,000  Level FlightAware Transoceanic
09:24PM 51.6860 -168.0236 285° West 505 581 31,000  Level FlightAware Transoceanic
09:24PM 51.6833 -168.0167 285° West 505 581 31,000  Level Anchorage Center
09:25PM 51.7225 -168.2419 285° West 505 581 31,000  Level FlightAware Transoceanic
09:26PM 51.7586 -168.4604 285° West 505 581 31,000  Level FlightAware Transoceanic
09:27PM 51.7943 -168.6793 285° West 505 581 31,000  Level FlightAware Transoceanic
09:28PM 51.8297 -168.8986 285° West 505 581 31,000  Level FlightAware Transoceanic
09:29PM 51.8645 -169.1182 284° West 505 581 31,000  Level FlightAware Transoceanic
09:30PM 51.8982 -169.3358 284° West 505 581 31,000  Level FlightAware Transoceanic
09:31PM 51.9325 -169.5569 284° West 505 581 31,000  Level FlightAware Transoceanic
09:32PM 51.9665 -169.7783 284° West 505 581 31,000  Level FlightAware Transoceanic
09:33PM 52.0000 -170.0000 283° West 505 581 31,000  Level FlightAware Transoceanic
09:33PM 52.0000 -170.0000 283° West 504 580 31,000  Level Anchorage Center
09:34PM 52.0320 -170.2216 283° West 505 581 31,000  Level FlightAware Transoceanic
09:34PM 52.0167 -170.1167 283° West 502 578 31,000  Level Anchorage Center
09:35PM 52.0635 -170.4436 283° West 505 581 31,000  Level FlightAware Transoceanic
09:36PM 52.0946 -170.6658 283° West 505 581 31,000  Level FlightAware Transoceanic
09:37PM 52.1254 -170.8884 283° West 505 581 31,000  Level FlightAware Transoceanic
09:38PM 52.1556 -171.1112 282° West 505 581 31,000  Level FlightAware Transoceanic
09:39PM 52.1855 -171.3344 282° West 505 581 31,000  Level FlightAware Transoceanic
09:40PM 52.1988 -171.4360 282° West 502 578 31,000  Level FlightAware Transoceanic
09:41PM 52.2277 -171.6569 282° West 502 578 31,000  Level FlightAware Transoceanic
09:42PM 52.2562 -171.8781 282° West 502 578 31,000  Level FlightAware Transoceanic
09:43PM 52.2843 -172.0996 282° West 502 578 31,000  Level FlightAware Transoceanic
09:43PM 52.3000 -172.2333 282° West 497 572 31,000  Level Anchorage Center
09:44PM 52.3119 -172.3213 281° West 502 578 31,000  Level FlightAware Transoceanic
09:45PM 52.3392 -172.5434 281° West 502 578 31,000  Level FlightAware Transoceanic
09:46PM 52.3660 -172.7657 281° West 502 578 31,000  Level FlightAware Transoceanic
09:47PM 52.3924 -172.9883 281° West 502 578 31,000  Level FlightAware Transoceanic
09:48PM 52.4185 -173.2111 281° West 502 578 31,000  Level FlightAware Transoceanic
09:49PM 52.4558 -173.5458 280° West 497 572 31,000  Level FlightAware Transoceanic
09:50PM 52.4804 -173.7654 280° West 497 572 31,000  Level FlightAware Transoceanic
09:51PM 52.5045 -173.9853 280° West 497 572 31,000  Level FlightAware Transoceanic
09:52PM 52.5283 -174.2054 280° West 497 572 31,000  Level FlightAware Transoceanic
09:53PM 52.5516 -174.4258 280° West 497 572 31,000  Level FlightAware Transoceanic
09:53PM 52.5500 -174.3500 280° West 498 573 31,000  Level Anchorage Center
09:54PM 52.5745 -174.6463 280° West 497 572 31,000  Level FlightAware Transoceanic
09:55PM 52.5970 -174.8672 279° West 497 572 31,000  Level FlightAware Transoceanic
09:56PM 52.6191 -175.0882 279° West 497 572 31,000  Level FlightAware Transoceanic
09:57PM 52.6408 -175.3094 279° West 497 572 31,000  Level FlightAware Transoceanic
09:58PM 52.6621 -175.5309 279° West 497 572 31,000  Level FlightAware Transoceanic
09:59PM 52.6824 -175.6948 279° West 498 573 31,000  Level FlightAware Transoceanic
10:00PM 52.7030 -175.9197 278° West 498 573 31,000  Level FlightAware Transoceanic
10:01PM 52.7231 -176.1449 278° West 498 573 31,000  Level FlightAware Transoceanic
10:02PM 52.7429 -176.3702 278° West 498 573 31,000  Level FlightAware Transoceanic
10:02PM 52.7500 -176.4667 278° West 490 564 31,000  Level Anchorage Center
10:03PM 52.7622 -176.5957 278° West 498 573 31,000  Level FlightAware Transoceanic
10:04PM 52.7811 -176.8214 278° West 498 573 31,000  Level FlightAware Transoceanic
10:05PM 52.7995 -177.0473 278° West 498 573 31,000  Level FlightAware Transoceanic
10:06PM 52.8175 -177.2735 277° West 498 573 31,000  Level FlightAware Transoceanic
10:07PM 52.8351 -177.4998 277° West 498 573 31,000  Level FlightAware Transoceanic
10:08PM 52.8450 -177.6398 277° West 490 564 31,000  Level FlightAware Transoceanic
10:09PM 52.8626 -177.8750 277° West 490 564 31,000  Level FlightAware Transoceanic
10:10PM 52.8797 -178.1105 277° West 490 564 31,000  Level FlightAware Transoceanic
10:11PM 52.8964 -178.3461 277° West 490 564 31,000  Level FlightAware Transoceanic
10:12PM 52.9126 -178.5818 276° West 490 564 31,000  Level FlightAware Transoceanic
10:12PM 52.9167 -178.6000 276° West 492 566 31,000  Level Anchorage Center
10:13PM 52.9283 -178.8178 276° West 490 564 31,000  Level FlightAware Transoceanic
10:14PM 52.9436 -179.0539 276° West 490 564 31,000  Level FlightAware Transoceanic
10:15PM 52.9584 -179.2902 276° West 490 564 31,000  Level FlightAware Transoceanic
10:16PM 52.9727 -179.5267 276° West 490 564 31,000  Level FlightAware Transoceanic
10:17PM 52.9866 -179.7632 275° West 490 564 31,000  Level FlightAware Transoceanic
10:18PM 53.0000 -180.0000 274° West 492 566 31,000  Level FlightAware Transoceanic
10:18PM 53.0000 180.0000 274° West 497 572 31,000  Level Anchorage Center
10:19PM 53.0095 179.7712 274° West 492 566 31,000  Level FlightAware Transoceanic
10:20PM 53.0186 179.5422 274° West 492 566 31,000  Level FlightAware Transoceanic
10:21PM 53.0272 179.3132 273° West 492 566 31,000  Level FlightAware Transoceanic
10:21PM 53.0333 179.2333 273° West 494 568 31,000  Level Anchorage Center
10:22PM 53.0354 179.0841 273° West 492 566 31,000  Level FlightAware Transoceanic
10:23PM 53.0431 178.8549 273° West 492 566 31,000  Level FlightAware Transoceanic
10:24PM 53.0494 178.6562 273° West 497 572 31,000  Level FlightAware Transoceanic
10:25PM 53.0562 178.4319 273° West 497 572 31,000  Level FlightAware Transoceanic
10:26PM 53.0625 178.2076 273° West 497 572 31,000  Level FlightAware Transoceanic
10:27PM 53.0685 177.9832 272° West 497 572 31,000  Level FlightAware Transoceanic
10:28PM 53.0741 177.8689 272° West 494 568 31,000  Level FlightAware Transoceanic
10:29PM 53.0794 177.6413 272° West 494 568 31,000  Level FlightAware Transoceanic
10:30PM 53.0842 177.4136 272° West 494 568 31,000  Level FlightAware Transoceanic
10:31PM 53.0886 177.1859 272° West 494 568 31,000 600 Level FlightAware Transoceanic
10:31PM 53.0833 177.0500 272° West 493 567 32,000  Climbing Anchorage Center
10:32PM 53.0926 176.9581 272° West 494 568 31,000 -720 Descending FlightAware Transoceanic
10:33PM 53.0961 176.7303 271° West 494 568 31,000  Level FlightAware Transoceanic
10:34PM 53.0993 176.5024 271° West 494 568 31,000  Level FlightAware Transoceanic
10:35PM 53.1019 176.2745 271° West 494 568 31,000  Level FlightAware Transoceanic
10:36PM 53.1041 176.0466 271° West 494 568 31,000 480 Level FlightAware Transoceanic
10:37PM 53.1004 175.7084 271° West 493 567 32,000 480 Climbing FlightAware Transoceanic
10:38PM 53.1018 175.4847 270° West 493 567 32,000  Level FlightAware Transoceanic
10:39PM 53.1027 175.2610 270° West 493 567 32,000  Level FlightAware Transoceanic
10:40PM 53.1033 175.0373 270° West 493 567 32,000  Level FlightAware Transoceanic
10:41PM 53.1034 174.8136 270° West 493 567 32,000  Level FlightAware Transoceanic
10:41PM 53.1000 174.8833 270° West 487 560 32,000  Level Anchorage Center
10:42PM 53.1031 174.5899 270° West 493 567 32,000  Level FlightAware Transoceanic
10:43PM 53.1023 174.3662 270° West 493 567 32,000  Level FlightAware Transoceanic
10:44PM 53.1012 174.1425 269° West 493 567 32,000  Level FlightAware Transoceanic
10:45PM 53.0997 173.9188 269° West 493 567 32,000  Level FlightAware Transoceanic
10:46PM 53.0977 173.6952 269° West 493 567 32,000  Level FlightAware Transoceanic
10:47PM 53.0934 173.5223 269° West 487 560 32,000  Level FlightAware Transoceanic
10:48PM 53.0908 173.2955 269° West 487 560 32,000  Level FlightAware Transoceanic
10:49PM 53.0877 173.0688 269° West 487 560 32,000  Level FlightAware Transoceanic
10:49PM 53.1000 173.0500 268° West 488 562 32,000  Level Anchorage Center
10:50PM 53.0843 172.8421 268° West 487 560 32,000  Level FlightAware Transoceanic
10:50PM 53.0833 172.7500 268° West 481 554 32,000  Level Anchorage Center
10:51PM 53.0804 172.6154 268° West 487 560 32,000  Level FlightAware Transoceanic
10:52PM 53.0760 172.3888 268° West 487 560 32,000  Level FlightAware Transoceanic
10:53PM 53.0713 172.1622 268° West 487 560 32,000  Level FlightAware Transoceanic
10:54PM 53.0661 171.9357 268° West 487 560 32,000  Level FlightAware Transoceanic
10:55PM 53.0673 171.6982 267° West 488 562 32,000  Level FlightAware Transoceanic
10:56PM 53.0604 171.4732 267° West 488 562 32,000  Level FlightAware Transoceanic
10:57PM 53.0502 171.3236 267° West 481 554 32,000  Level FlightAware Transoceanic
10:58PM 53.0430 171.0861 267° West 481 554 32,000  Level FlightAware Transoceanic
10:59PM 53.0353 170.8487 267° West 481 554 32,000  Level FlightAware Transoceanic
11:00PM 53.0272 170.6114 267° West 481 554 32,000  Level FlightAware Transoceanic
11:00PM 53.0333 170.6500 266° West 487 560 32,000  Level Anchorage Center
11:01PM 53.0186 170.3742 266° West 481 554 32,000  Level FlightAware Transoceanic
11:02PM 53.0095 170.1370 266° West 481 554 32,000  Level FlightAware Transoceanic
11:03PM 53.0000 169.9000 241° Southwest 481 554 32,000  Level FlightAware Transoceanic
11:03PM 53.0000 169.8833 241° Southwest 480 552 32,000  Level Anchorage Center
11:04PM 52.9353 169.7045 241° Southwest 481 554 32,000  Level FlightAware Transoceanic
11:05PM 52.8702 169.5095 241° Southwest 481 554 32,000  Level FlightAware Transoceanic
11:06PM 52.8049 169.3152 241° Southwest 487 560 32,000  Level FlightAware Transoceanic
11:07PM 52.7392 169.1214 241° Southwest 487 560 32,000  Level FlightAware Transoceanic
11:08PM 52.6732 168.9282 241° Southwest 487 560 32,000  Level FlightAware Transoceanic
11:09PM 52.6069 168.7356 240° Southwest 487 560 32,000  Level FlightAware Transoceanic
11:09PM 52.6000 168.7000 240° Southwest 479 551 32,000  Level Anchorage Center
11:10PM 52.6068 168.7234 240° Southwest 480 552 32,000  Level FlightAware Transoceanic
11:11PM 52.5401 168.5321 240° Southwest 480 552 32,000  Level FlightAware Transoceanic
11:12PM 52.4732 168.3414 240° Southwest 480 552 32,000  Level FlightAware Transoceanic
11:13PM 52.4059 168.1512 240° Southwest 480 552 32,000  Level FlightAware Transoceanic
11:14PM 52.3384 167.9617 240° Southwest 480 552 32,000  Level FlightAware Transoceanic
11:15PM 52.2705 167.7727 240° Southwest 480 552 32,000  Level FlightAware Transoceanic
11:16PM 52.1979 167.5694 239° Southwest 479 551 32,000  Level FlightAware Transoceanic
11:17PM 52.1298 167.3830 239° Southwest 479 551 32,000  Level FlightAware Transoceanic
11:18PM 52.0615 167.1972 239° Southwest 479 551 32,000  Level FlightAware Transoceanic
11:19PM 51.9928 167.0119 239° Southwest 479 551 32,000  Level FlightAware Transoceanic
11:19PM 51.9500 166.9167 239° Southwest 471 542 32,000  Level Anchorage Center
11:20PM 51.9239 166.8272 239° Southwest 479 551 32,000  Level FlightAware Transoceanic
11:21PM 51.8546 166.6430 239° Southwest 479 551 32,000  Level FlightAware Transoceanic
11:22PM 51.7851 166.4594 238° Southwest 479 551 32,000  Level FlightAware Transoceanic
11:23PM 51.7153 166.2764 238° Southwest 479 551 32,000  Level FlightAware Transoceanic
11:24PM 51.6453 166.0940 238° Southwest 479 551 32,000  Level FlightAware Transoceanic
11:25PM 51.5640 165.8887 238° Southwest 471 542 32,000  Level FlightAware Transoceanic
11:26PM 51.4988 165.7191 238° Southwest 471 542 32,000  Level FlightAware Transoceanic
11:27PM 51.4333 165.5500 237° Southwest 471 542 32,000  Level FlightAware Transoceanic
11:27PM 51.4333 165.5500 237° Southwest 476 548 32,000  Level Anchorage Center
11:28PM 51.3650 165.3818 237° Southwest 471 542 32,000  Level FlightAware Transoceanic
11:29PM 51.2964 165.2142 237° Southwest 471 542 32,000  Level FlightAware Transoceanic
11:29PM 51.3000 165.2167 237° Southwest 463 533 32,000  Level Anchorage Center
11:30PM 51.2276 165.0470 237° Southwest 471 542 32,000  Level FlightAware Transoceanic
11:31PM 51.1586 164.8803 236° Southwest 471 542 32,000  Level FlightAware Transoceanic
11:32PM 51.0893 164.7142 236° Southwest 471 542 32,000  Level FlightAware Transoceanic
11:33PM 51.0197 164.5485 236° Southwest 476 548 32,000  Level FlightAware Transoceanic
11:34PM 50.9500 164.3833 237° Southwest 476 548 32,000  Level FlightAware Transoceanic
11:34PM 50.9500 164.3833 237° Southwest 463 533 32,000  Level Anchorage Center
11:35PM 50.8790 164.2109 237° Southwest 463 533 32,000  Level FlightAware Transoceanic
11:36PM 50.8077 164.0390 237° Southwest 463 533 32,000  Level FlightAware Transoceanic
11:37PM 50.7362 163.8676 237° Southwest 463 533 32,000  Level FlightAware Transoceanic
11:38PM 50.6645 163.6968 236° Southwest 463 533 32,000  Level FlightAware Transoceanic
11:38PM 50.6333 163.6167 236° Southwest 454 522 32,000  Level Anchorage Center
11:39PM 50.5924 163.5264 236° Southwest 463 533 32,000  Level FlightAware Transoceanic
11:40PM 50.5202 163.3566 236° Southwest 463 533 32,000  Level FlightAware Transoceanic
11:41PM 50.4477 163.1873 236° Southwest 463 533 32,000  Level FlightAware Transoceanic
11:42PM 50.3749 163.0186 236° Southwest 463 533 32,000  Level FlightAware Transoceanic
11:43PM 50.3019 162.8503 236° Southwest 463 533 32,000  Level FlightAware Transoceanic
11:44PM 50.2287 162.6826 236° Southwest 463 533 32,000  Level FlightAware Transoceanic
11:45PM 50.2088 162.6334 236° Southwest 454 522 32,000  Level FlightAware Transoceanic
11:46PM 50.1373 162.4712 235° Southwest 454 522 32,000  Level FlightAware Transoceanic
11:47PM 50.0655 162.3095 235° Southwest 454 522 32,000  Level FlightAware Transoceanic
11:48PM 49.9935 162.1483 235° Southwest 454 522 32,000  Level FlightAware Transoceanic
11:48PM 49.9833 162.1000 234° Southwest 444 511 32,000  Level Anchorage Center
11:49PM 49.9213 161.9876 235° Southwest 454 522 32,000  Level FlightAware Transoceanic
11:50PM 49.8488 161.8273 235° Southwest 454 522 32,000  Level FlightAware Transoceanic
11:51PM 49.7762 161.6676 235° Southwest 454 522 32,000  Level FlightAware Transoceanic
11:52PM 49.7033 161.5083 235° Southwest 454 522 32,000  Level FlightAware Transoceanic
11:53PM 49.6302 161.3495 235° Southwest 454 522 32,000  Level FlightAware Transoceanic
11:54PM 49.5554 161.1844 234° Southwest 444 511 32,000  Level FlightAware Transoceanic
11:55PM 49.4833 161.0333 234° Southwest 444 511 32,000  Level FlightAware Transoceanic
11:55PM 49.4833 161.0333 234° Southwest 447 514 32,000  Level Anchorage Center
11:56PM 49.4034 160.8625 234° Southwest 444 511 32,000  Level FlightAware Transoceanic
11:57PM 49.3232 160.6922 234° Southwest 444 511 32,000  Level FlightAware Transoceanic
11:58PM 49.2428 160.5225 234° Southwest 444 511 32,000  Level FlightAware Transoceanic
11:58PM 49.3000 160.6333 234° Southwest 442 509 32,000  Level Anchorage Center
11:59PM 49.1621 160.3533 234° Southwest 444 511 32,000  Level FlightAware Transoceanic
12:00AM 49.0812 160.1847 234° Southwest 444 511 32,000  Level FlightAware Transoceanic
12:01AM 48.9966 160.0269 231° Southwest  Level FlightAware Approximate
12:02AM 49.0000 160.0167 233° Southwest 447 514 32,000  Level FlightAware Transoceanic
12:03AM 48.9216 159.8568 233° Southwest 447 514 32,000  Level FlightAware Transoceanic
12:04AM 48.8430 159.6975 233° Southwest 442 509 32,000  Level FlightAware Transoceanic
12:05AM 48.7643 159.5387 233° Southwest 442 509 32,000  Level FlightAware Transoceanic
12:06AM 48.6852 159.3803 233° Southwest 442 509 32,000  Level FlightAware Transoceanic
12:07AM 48.6060 159.2225 233° Southwest 442 509 32,000  Level FlightAware Transoceanic
12:08AM 48.5265 159.0652 233° Southwest 442 509 32,000  Level FlightAware Transoceanic
12:09AM 48.4469 158.9083 232° Southwest 442 509 32,000  Level FlightAware Transoceanic
12:10AM 48.3670 158.7520 232° Southwest 442 509 32,000  Level FlightAware Transoceanic
12:11AM 48.2869 158.5961 232° Southwest 442 509 32,000  Level FlightAware Transoceanic
12:12AM 48.2066 158.4407 232° Southwest 442 509 32,000  Level FlightAware Transoceanic
12:13AM 48.1261 158.2858 232° Southwest 442 509 32,000  Level FlightAware Transoceanic
12:14AM 48.0454 158.1314 232° Southwest 442 509 32,000  Level FlightAware Transoceanic
12:15AM 47.9645 157.9775 232° Southwest 442 509 32,000  Level FlightAware Transoceanic
12:16AM 47.8833 157.8241 232° Southwest 442 509 32,000  Level FlightAware Transoceanic
12:17AM 47.8020 157.6711 232° Southwest 442 509 32,000  Level FlightAware Transoceanic
12:18AM 47.7205 157.5186 231° Southwest 442 509 32,000  Level FlightAware Transoceanic
12:19AM 47.6387 157.3667 231° Southwest 442 509 32,000  Level FlightAware Transoceanic
12:20AM 47.5568 157.2151 231° Southwest 442 509 32,000  Level FlightAware Transoceanic
12:21AM 47.4747 157.0641 231° Southwest 442 509 32,000  Level FlightAware Transoceanic
12:22AM 47.3923 156.9135 231° Southwest 442 509 32,000  Level FlightAware Transoceanic
12:23AM 47.3098 156.7634 231° Southwest 442 509 32,000  Level FlightAware Transoceanic
12:24AM 47.2271 156.6137 231° Southwest 442 509 32,000  Level FlightAware Transoceanic
12:25AM 47.1442 156.4646 231° Southwest 442 509 32,000  Level FlightAware Transoceanic
12:26AM 47.0611 156.3159 231° Southwest 442 509 32,000  Level FlightAware Transoceanic
12:27AM 46.9777 156.1676 230° Southwest 442 509 32,000  Level FlightAware Transoceanic
12:28AM 46.8942 156.0198 230° Southwest 442 509 32,000  Level FlightAware Transoceanic
12:29AM 46.8106 155.8725 230° Southwest 442 509 32,000  Level FlightAware Transoceanic
12:30AM 46.7267 155.7256 230° Southwest 442 509 32,000  Level FlightAware Transoceanic
12:31AM 46.6426 155.5792 230° Southwest 442 509 32,000  Level FlightAware Transoceanic
12:32AM 46.5584 155.4333 230° Southwest 442 509 32,000  Level FlightAware Transoceanic
12:33AM 46.4740 155.2878 230° Southwest 442 509 32,000  Level FlightAware Transoceanic
12:34AM 46.3894 155.1427 230° Southwest 442 509 32,000  Level FlightAware Transoceanic
12:35AM 46.3046 154.9981 230° Southwest 442 509 32,000  Level FlightAware Transoceanic
12:36AM 46.2196 154.8540 229° Southwest 442 509 32,000  Level FlightAware Transoceanic
12:37AM 46.1344 154.7103 229° Southwest 442 509 32,000  Level FlightAware Transoceanic
12:38AM 46.0491 154.5670 229° Southwest 442 509 32,000  Level FlightAware Transoceanic
12:39AM 45.9636 154.4242 229° Southwest 442 509 32,000  Level FlightAware Transoceanic
12:40AM 45.8779 154.2818 229° Southwest 442 509 32,000  Level FlightAware Transoceanic
12:41AM 45.7920 154.1399 229° Southwest 442 509 32,000  Level FlightAware Transoceanic
12:42AM 45.7060 153.9984 229° Southwest 442 509 32,000  Level FlightAware Transoceanic
12:43AM 45.6197 153.8573 229° Southwest 442 509 32,000  Level FlightAware Transoceanic
12:44AM 45.5233 153.7256 224° Southwest  Level FlightAware Approximate
12:45AM 45.4266 153.5944 224° Southwest  Level FlightAware Approximate
12:46AM 45.4326 153.5809 229° Southwest  Level FlightAware Approximate
12:47AM 45.3441 153.4387 229° Southwest  Level FlightAware Approximate
12:48AM 45.2555 153.2970 228° Southwest  Level FlightAware Approximate
12:49AM 45.1666 153.1557 228° Southwest  Level FlightAware Approximate
12:50AM 45.0776 153.0148 228° Southwest  Level FlightAware Approximate
12:51AM 44.9884 152.8744 228° Southwest  Level FlightAware Approximate
12:52AM 44.8991 152.7344 228° Southwest  Level FlightAware Approximate
12:53AM 44.8096 152.5948 228° Southwest  Level FlightAware Approximate
12:54AM 44.7199 152.4557 228° Southwest  Level FlightAware Approximate
12:55AM 44.6300 152.3170 228° Southwest  Level FlightAware Approximate
12:56AM 44.5400 152.1788 228° Southwest  Level FlightAware Approximate
12:57AM 44.4497 152.0411 227° Southwest  Level FlightAware Approximate
12:58AM 44.3588 151.9043 227° Southwest  Level FlightAware Approximate
12:59AM 44.2678 151.7680 227° Southwest  Level FlightAware Approximate
01:00AM 44.1766 151.6321 227° Southwest  Level FlightAware Approximate
01:01AM 44.0852 151.4966 227° Southwest  Level FlightAware Approximate
01:02AM 43.9937 151.3616 227° Southwest  Level FlightAware Approximate
01:03AM 43.9020 151.2270 227° Southwest  Level FlightAware Approximate
01:04AM 43.8102 151.0927 227° Southwest  Level FlightAware Approximate
01:05AM 43.7182 150.9589 226° Southwest  Level FlightAware Approximate
01:06AM 43.6260 150.8255 226° Southwest  Level FlightAware Approximate
01:07AM 43.5337 150.6925 226° Southwest  Level FlightAware Approximate
01:08AM 43.4413 150.5600 226° Southwest  Level FlightAware Approximate
01:09AM 43.3487 150.4278 226° Southwest  Level FlightAware Approximate
01:10AM 43.2559 150.2960 226° Southwest  Level FlightAware Approximate
01:11AM 43.1630 150.1646 226° Southwest  Level FlightAware Approximate
01:12AM 43.0699 150.0337 226° Southwest  Level FlightAware Approximate
01:13AM 42.9767 149.9031 226° Southwest  Level FlightAware Approximate
01:14AM 42.8833 149.7729 226° Southwest  Level FlightAware Approximate
01:15AM 42.7898 149.6431 226° Southwest  Level FlightAware Approximate
01:16AM 42.6962 149.5137 225° Southwest  Level FlightAware Approximate
01:17AM 42.6023 149.3847 225° Southwest  Level FlightAware Approximate
01:18AM 42.5084 149.2561 225° Southwest  Level FlightAware Approximate
01:19AM 42.4143 149.1279 225° Southwest  Level FlightAware Approximate
01:20AM 42.3201 149.0000 225° Southwest  Level FlightAware Approximate
01:21AM 42.2257 148.8726 225° Southwest  Level FlightAware Approximate
01:22AM 42.1312 148.7455 225° Southwest  Level FlightAware Approximate
01:23AM 42.0365 148.6188 225° Southwest  Level FlightAware Approximate
01:23AM 42.2290 148.9330 225° Southwest 498 573 34,000  Level FlightAware
01:24AM 41.9418 148.4925 225° Southwest  Level FlightAware Approximate
01:24AM 42.1750 148.8610 225° Southwest 498 573 34,000  Level FlightAware
01:24AM 42.1010 148.7610 225° Southwest 499 574 34,000  Level FlightAware
01:25AM 42.0420 148.6820 225° Southwest 499 574 34,000  Level FlightAware
01:26AM 41.9680 148.5840 225° Southwest 500 575 34,000  Level FlightAware
01:27AM 41.8960 148.4870 225° Southwest 500 575 34,000  Level FlightAware
01:27AM 41.8190 148.3840 225° Southwest 502 578 34,000  Level FlightAware
01:28AM 41.7520 148.2970 224° Southwest 502 578 34,000  Level FlightAware
01:29AM 41.6600 148.1760 225° Southwest 497 572 34,000  Level FlightAware
01:30AM 41.5940 148.0910 224° Southwest 497 572 34,000  Level FlightAware
01:30AM 41.5180 147.9940 224° Southwest 497 572 34,000  Level FlightAware
01:31AM 41.4430 147.8970 224° Southwest 497 572 34,000  Level FlightAware
01:32AM 41.3750 147.8110 224° Southwest 497 572 34,000  Level FlightAware
01:32AM 41.3090 147.7260 224° Southwest 498 573 34,000  Level FlightAware
01:33AM 41.2420 147.6410 224° Southwest 497 572 34,000  Level FlightAware
01:34AM 41.1680 147.5470 224° Southwest 497 572 34,000  Level FlightAware
01:34AM 41.1010 147.4630 223° Southwest 497 572 34,000  Level FlightAware
01:35AM 41.0290 147.3720 224° Southwest 498 573 34,000  Level FlightAware
01:36AM 40.9570 147.2820 223° Southwest 506 582 34,000  Level FlightAware
01:37AM 40.8820 147.1880 223° Southwest 506 582 34,000  Level FlightAware
01:38AM 40.7870 147.0700 223° Southwest 507 583 34,000  Level FlightAware
01:38AM 40.7170 146.9830 223° Southwest 508 585 34,000  Level FlightAware
01:39AM 40.6390 146.8870 223° Southwest 509 586 34,000  Level FlightAware
01:40AM 40.5840 146.8190 223° Southwest 510 587 34,000  Level FlightAware
01:40AM 40.5050 146.7220 223° Southwest 512 589 34,000  Level FlightAware
01:41AM 40.4330 146.6330 223° Southwest 512 589 34,000  Level FlightAware
01:42AM 40.3560 146.5390 223° Southwest 510 587 34,000  Level FlightAware
01:42AM 40.2970 146.4670 223° Southwest 510 587 34,000  Level FlightAware
01:43AM 40.2240 146.3770 223° Southwest 510 587 34,000  Level FlightAware
01:44AM 40.1650 146.3060 223° Southwest 510 587 34,000  Level FlightAware
01:45AM 40.1060 146.2340 223° Southwest 510 587 34,000  Level FlightAware
01:45AM 40.0480 146.1630 223° Southwest 510 587 34,000  Level FlightAware
01:46AM 39.9890 146.0910 223° Southwest 510 587 34,000  Level FlightAware
01:47AM 39.9300 146.0200 223° Southwest 510 587 34,000  Level FlightAware
01:47AM 39.8570 145.9310 223° Southwest 510 587 34,000  Level FlightAware
01:48AM 39.7980 145.8590 223° Southwest 510 587 34,000  Level FlightAware
01:49AM 39.7400 145.7880 223° Southwest 510 587 34,000  Level FlightAware
01:49AM 39.6810 145.7170 223° Southwest 510 587 34,000  Level FlightAware
01:50AM 39.6080 145.6280 223° Southwest 510 587 34,000  Level FlightAware
01:51AM 39.5490 145.5570 223° Southwest 510 587 34,000 60 Level FlightAware
01:53AM 39.3907 145.3630 223° Southwest  Level FlightAware Approximate
01:54AM 39.2936 145.2446 223° Southwest  Level FlightAware Approximate
01:55AM 39.1964 145.1266 223° Southwest  Level FlightAware Approximate
01:56AM 39.0991 145.0089 223° Southwest  Level FlightAware Approximate
01:57AM 39.0017 144.8915 223° Southwest  Level FlightAware Approximate
01:58AM 38.9041 144.7745 223° Southwest  Level FlightAware Approximate
01:59AM 38.8065 144.6577 223° Southwest  Level FlightAware Approximate
02:00AM 38.7065 144.5438 222° Southwest  Level FlightAware Approximate
02:01AM 38.6066 144.4306 222° Southwest  Level FlightAware Approximate
02:02AM 38.5065 144.3178 221° Southwest  Level FlightAware Approximate
02:03AM 38.4063 144.2053 221° Southwest  Level FlightAware Approximate
02:04AM 38.3060 144.0930 221° Southwest  Level FlightAware Approximate
02:05AM 38.2056 143.9811 221° Southwest  Level FlightAware Approximate
02:06AM 38.1051 143.8695 221° Southwest  Level FlightAware Approximate
02:07AM 38.0045 143.7583 221° Southwest  Level FlightAware Approximate
02:07AM 37.8010 143.1150 221° Southwest 515 593 36,000  Level FlightAware
02:08AM 37.7300 142.9760 237° Southwest 516 594 36,000  Level FlightAware
02:09AM 37.6690 142.8560 237° Southwest 516 594 36,000  Level FlightAware
02:10AM 37.6170 142.7550 237° Southwest 518 596 36,000  Level FlightAware
02:10AM 37.5780 142.6790 237° Southwest 519 597 36,000  Level FlightAware
02:11AM 37.5060 142.5390 237° Southwest 522 601 36,000  Level FlightAware
02:12AM 37.4500 142.3930 244° Southwest 509 586 36,000  Level FlightAware
02:12AM 37.4190 142.2960 248° West 508 585 36,000  Level FlightAware
02:14AM 37.3400 142.0590 247° West 505 581 36,000  Level FlightAware
02:15AM 37.2760 141.8720 247° West 502 578 36,000  Level FlightAware
02:16AM 37.2120 141.6860 247° West 498 573 36,000  Level FlightAware
02:17AM 37.1490 141.5020 247° West 494 568 36,000  Level FlightAware
02:19AM 37.0860 141.3190 247° West 490 564 36,000  Level FlightAware
02:20AM 37.0230 141.1380 246° West 489 563 36,000  Level FlightAware
02:21AM 36.9400 140.9200 245° Southwest 488 562 36,000  Level FlightAware
02:22AM 36.8650 140.7460 242° Southwest 484 557 36,000  Level FlightAware
02:24AM 36.7910 140.5750 242° Southwest 480 552 36,000  Level FlightAware
02:25AM 36.7150 140.4020 241° Southwest 482 555 36,000  Level FlightAware
02:26AM 36.6430 140.2380 241° Southwest 484 557 36,000  Level FlightAware
02:27AM 36.5470 140.0220 241° Southwest 484 557 36,000  Level FlightAware
02:28AM 36.5030 139.9220 241° Southwest 487 560 36,000  Level FlightAware
02:29AM 36.4530 139.8100 241° Southwest 491 565 36,000  Level FlightAware
02:29AM 36.4090 139.7120 241° Southwest 491 565 36,000  Level FlightAware
02:30AM 36.3640 139.6140 240° Southwest 494 568 36,000  Level FlightAware
02:31AM 36.3140 139.5020 241° Southwest 490 564 36,000  Level FlightAware
02:31AM 36.2720 139.4090 241° Southwest 484 557 36,000  Level FlightAware
02:32AM 36.2260 139.3080 241° Southwest 481 554 36,000  Level FlightAware
02:33AM 36.1770 139.2000 241° Southwest 480 552 36,000  Level FlightAware
02:34AM 36.1330 139.1050 240° Southwest 486 559 36,000  Level FlightAware
02:34AM 36.0820 138.9940 240° Southwest 488 562 36,000  Level FlightAware
02:35AM 36.0440 138.9120 240° Southwest 488 562 36,000  Level FlightAware
02:36AM 36.0030 138.8210 241° Southwest 489 563 36,000  Level FlightAware
02:36AM 35.9570 138.7230 240° Southwest 489 563 36,000  Level FlightAware
02:37AM 35.9030 138.6060 240° Southwest 487 560 36,000  Level FlightAware
02:38AM 35.8560 138.4920 243° Southwest 481 554 36,000  Level FlightAware
02:38AM 35.8290 138.4230 244° Southwest 481 554 36,000  Level FlightAware
02:39AM 35.7810 138.2950 245° Southwest 480 552 36,000  Level FlightAware
02:41AM 35.6990 138.0810 245° Southwest 471 542 36,000  Level FlightAware
02:41AM 35.6560 137.9710 244° Southwest 472 543 36,000  Level FlightAware
02:44AM 35.5259 137.6444 244° Southwest  Level Estimated
02:45AM 35.4669 137.4974 244° Southwest  Level Estimated
02:45AM 35.4700 137.3580 244° Southwest 469 540 36,000  Level FlightAware
02:46AM 35.4077 137.3506 244° Southwest  Level Estimated
02:47AM 35.3830 137.0560 244° Southwest 469 540 36,000  Level FlightAware
02:48AM 35.3427 137.0457 244° Southwest  Level Estimated
02:48AM 35.3440 136.9230 250° West 466 536 36,000  Level FlightAware
02:51AM 35.2560 136.5770 253° West  Level FlightAware Approximate
02:52AM 35.2159 136.4212 253° West  Level FlightAware Approximate
02:52AM 35.1960 136.4200 253° West 462 532 36,000  Level FlightAware
02:54AM 35.1328 136.1319 246° West  Level FlightAware Approximate
02:55AM 35.0781 135.9831 246° West  Level FlightAware Approximate
02:56AM 35.0233 135.8345 246° West  Level FlightAware Approximate
02:57AM 34.9861 135.6783 255° West  Level FlightAware Approximate
02:58AM 34.9512 135.5212 255° West  Level FlightAware Approximate
02:59AM 34.9150 135.3650 221° Southwest  Level FlightAware Approximate
03:00AM 34.8137 135.2592 221° Southwest  Level FlightAware Approximate
03:00AM 34.6110 135.3040 221° Southwest 476 548 36,000  Level FlightAware
03:01AM 34.5560 135.2070 235° Southwest 475 547 36,000  Level FlightAware
03:01AM 34.5050 135.1190 235° Southwest 477 549 36,000  Level FlightAware
03:02AM 34.4470 135.0170 235° Southwest 477 549 36,000  Level FlightAware
03:03AM 34.4030 134.9410 235° Southwest 476 548 36,000  Level FlightAware
03:03AM 34.3460 134.8430 235° Southwest 475 547 36,000  Level FlightAware
03:04AM 34.2900 134.7470 235° Southwest 472 543 36,000  Level FlightAware
03:05AM 34.2360 134.6640 232° Southwest 475 547 36,000  Level FlightAware
03:06AM 34.1730 134.5730 230° Southwest 472 543 36,000  Level FlightAware
03:06AM 34.1170 134.4920 230° Southwest 470 541 36,000  Level FlightAware
03:07AM 34.0610 134.4130 229° Southwest 469 540 36,000  Level FlightAware
03:08AM 33.9970 134.3220 230° Southwest 469 540 36,000  Level FlightAware
03:08AM 33.9400 134.2410 230° Southwest 469 540 36,000  Level FlightAware
03:09AM 33.8860 134.1640 230° Southwest 468 539 36,000  Level FlightAware
03:10AM 33.8220 134.0730 230° Southwest 466 536 36,000  Level FlightAware
03:10AM 33.7660 133.9940 230° Southwest 466 536 36,000  Level FlightAware
03:11AM 33.7030 133.9060 229° Southwest 466 536 36,000  Level FlightAware
03:12AM 33.6480 133.8290 229° Southwest 465 535 36,000  Level FlightAware
03:12AM 33.5910 133.7490 229° Southwest 465 535 36,000  Level FlightAware
03:13AM 33.5380 133.6750 229° Southwest 465 535 36,000  Level FlightAware
03:14AM 33.4830 133.5790 236° Southwest 458 527 36,000  Level FlightAware
03:15AM 33.4220 133.4700 236° Southwest 459 528 36,000  Level FlightAware
03:16AM 33.3600 133.3630 235° Southwest 457 526 36,000  Level FlightAware
03:17AM 33.2600 133.1890 236° Southwest 458 527 36,000 60 Level FlightAware
03:18AM 33.2090 133.1030 235° Southwest 462 532 36,200 780 Climbing FlightAware
03:19AM 33.1460 132.9940 235° Southwest 460 529 37,300 1,080 Climbing FlightAware
03:19AM 33.0890 132.8960 235° Southwest 457 526 38,000 480 Climbing FlightAware
03:20AM 33.0410 132.8130 235° Southwest 456 525 38,000  Level FlightAware
03:21AM 32.9870 132.7200 235° Southwest 456 525 38,000  Level FlightAware
03:21AM 32.9420 132.6450 234° Southwest 456 525 38,000  Level FlightAware
03:22AM 32.8880 132.5520 235° Southwest 455 524 38,000  Level FlightAware
03:23AM 32.8350 132.4620 235° Southwest 453 521 38,000  Level FlightAware
03:24AM 32.7810 132.3720 235° Southwest 453 521 38,000  Level FlightAware
03:24AM 32.7330 132.2900 235° Southwest 452 520 38,000  Level FlightAware
03:25AM 32.6840 132.2080 235° Southwest 454 522 38,000  Level FlightAware
03:26AM 32.6290 132.1160 235° Southwest 456 525 38,000  Level FlightAware
03:26AM 32.5810 132.0350 235° Southwest 457 526 38,000  Level FlightAware
03:27AM 32.5260 131.9430 235° Southwest 458 527 38,000  Level FlightAware
03:28AM 32.4830 131.8720 234° Southwest 458 527 38,000  Level FlightAware
03:29AM 32.4130 131.7550 235° Southwest 458 527 38,000  Level FlightAware
03:29AM 32.3580 131.6630 235° Southwest 458 527 38,000  Level FlightAware
03:30AM 32.3090 131.5820 234° Southwest 458 527 38,000  Level FlightAware
03:31AM 32.2610 131.5030 234° Southwest 458 527 38,000  Level FlightAware
03:31AM 32.2070 131.4130 235° Southwest 455 524 38,000  Level FlightAware
03:32AM 32.1560 131.3300 234° Southwest 454 522 38,000  Level FlightAware
03:33AM 32.1060 131.2480 234° Southwest 453 521 38,000  Level FlightAware
03:34AM 32.0530 131.1600 235° Southwest 452 520 38,000  Level FlightAware
03:34AM 32.0030 131.0790 234° Southwest 451 519 38,000  Level FlightAware
03:35AM 31.9500 130.9930 234° Southwest 452 520 38,000  Level FlightAware
03:36AM 31.9060 130.9200 235° Southwest 452 520 38,000  Level FlightAware
03:36AM 31.8440 130.8190 234° Southwest 451 519 38,000  Level FlightAware
03:37AM 31.7950 130.7400 234° Southwest 450 518 38,000  Level FlightAware
03:38AM 31.7450 130.6610 233° Southwest 450 518 38,000  Level FlightAware
03:38AM 31.6940 130.5770 235° Southwest 449 517 38,000  Level FlightAware
03:39AM 31.6490 130.5090 232° Southwest 452 520 38,000  Level FlightAware
03:40AM 31.5930 130.4250 232° Southwest 451 519 38,000  Level FlightAware
03:41AM 31.5320 130.3330 232° Southwest 450 518 38,000  Level FlightAware
03:41AM 31.4900 130.2690 232° Southwest 448 516 38,000  Level FlightAware
03:42AM 31.4250 130.1710 232° Southwest 448 516 38,000  Level FlightAware
03:43AM 31.3550 130.0650 232° Southwest 449 517 38,000  Level FlightAware
03:44AM 31.3070 129.9920 232° Southwest 449 517 38,000  Level FlightAware
03:44AM 31.2470 129.9020 232° Southwest 450 518 38,000  Level FlightAware
03:45AM 31.1950 129.8250 232° Southwest 450 518 38,000  Level FlightAware
03:46AM 31.1480 129.7550 232° Southwest 450 518 38,000  Level FlightAware
03:46AM 31.0920 129.6710 232° Southwest 453 521 38,000  Level FlightAware
03:47AM 31.0480 129.6050 232° Southwest 453 521 38,000  Level FlightAware
03:48AM 31.0040 129.5390 232° Southwest 453 521 38,000  Level FlightAware
03:48AM 30.9600 129.4740 232° Southwest 453 521 38,000  Level FlightAware
03:49AM 30.9050 129.3920 232° Southwest 453 521 38,000  Level FlightAware
03:50AM 30.8610 129.3270 232° Southwest 453 521 38,000  Level FlightAware
03:51AM 30.8180 129.2610 233° Southwest 453 521 38,000  Level FlightAware
03:51AM 30.7740 129.1960 232° Southwest 453 521 38,000  Level FlightAware
03:52AM 30.7300 129.1310 232° Southwest 453 521 38,000  Level FlightAware
03:53AM 30.6750 129.0490 232° Southwest 453 521 38,000  Level FlightAware
03:53AM 30.6310 128.9840 232° Southwest 453 521 38,000  Level FlightAware
03:54AM 30.5870 128.9180 232° Southwest 453 521 38,000  Level FlightAware
03:55AM 30.5430 128.8530 232° Southwest 453 521 38,000  Level FlightAware
03:55AM 30.4990 128.7880 232° Southwest 453 521 38,000  Level FlightAware
03:58AM 30.3277 128.5244 233° Southwest  Level FlightAware Approximate
03:59AM 30.2473 128.4011 233° Southwest  Level FlightAware Approximate
04:00AM 30.1667 128.2781 233° Southwest  Level FlightAware Approximate
04:01AM 30.0860 128.1552 233° Southwest  Level FlightAware Approximate
04:02AM 30.0023 128.0356 221° Southwest  Level FlightAware Approximate
04:03AM 29.9147 127.9195 229° Southwest  Level FlightAware Approximate
04:04AM 29.8286 127.8021 232° Southwest  Level FlightAware Approximate
04:05AM 29.7457 127.6815 232° Southwest  Level FlightAware Approximate
04:06AM 29.6628 127.5612 232° Southwest  Level FlightAware Approximate
04:07AM 29.5797 127.4411 232° Southwest  Level FlightAware Approximate
04:08AM 29.4965 127.3212 231° Southwest  Level FlightAware Approximate
04:09AM 29.4133 127.2014 231° Southwest  Level FlightAware Approximate
04:10AM 29.3299 127.0819 231° Southwest  Level FlightAware Approximate
04:11AM 29.2464 126.9626 231° Southwest  Level FlightAware Approximate
04:12AM 29.1628 126.8435 231° Southwest  Level FlightAware Approximate
04:13AM 29.0791 126.7245 231° Southwest  Level FlightAware Approximate
04:14AM 28.9953 126.6058 231° Southwest  Level FlightAware Approximate
04:15AM 28.9114 126.4872 231° Southwest  Level FlightAware Approximate
04:16AM 28.8274 126.3688 231° Southwest  Level FlightAware Approximate
04:17AM 28.7433 126.2506 231° Southwest  Level FlightAware Approximate
04:18AM 28.6591 126.1327 231° Southwest  Level FlightAware Approximate
04:19AM 28.5748 126.0148 231° Southwest  Level FlightAware Approximate
04:20AM 28.4904 125.8972 231° Southwest  Level FlightAware Approximate
04:21AM 28.4059 125.7798 231° Southwest  Level FlightAware Approximate
04:22AM 28.3212 125.6626 231° Southwest  Level FlightAware Approximate
04:23AM 28.2365 125.5455 231° Southwest  Level FlightAware Approximate
04:24AM 28.1517 125.4287 231° Southwest  Level FlightAware Approximate
04:25AM 28.0668 125.3120 231° Southwest  Level FlightAware Approximate
04:26AM 27.9818 125.1955 230° Southwest  Level FlightAware Approximate
04:27AM 27.8967 125.0792 230° Southwest  Level FlightAware Approximate
04:28AM 27.8114 124.9631 230° Southwest  Level FlightAware Approximate
04:29AM 27.7261 124.8471 230° Southwest  Level FlightAware Approximate
04:30AM 27.6407 124.7314 230° Southwest  Level FlightAware Approximate
04:31AM 27.5552 124.6158 230° Southwest  Level FlightAware Approximate
04:32AM 27.4697 124.5004 230° Southwest  Level FlightAware Approximate
04:33AM 27.3840 124.3852 230° Southwest  Level FlightAware Approximate
04:34AM 27.2982 124.2701 230° Southwest  Level FlightAware Approximate
04:35AM 27.2123 124.1553 230° Southwest  Level FlightAware Approximate
04:36AM 27.1263 124.0406 230° Southwest  Level FlightAware Approximate
04:37AM 27.0403 123.9261 230° Southwest  Level FlightAware Approximate
04:38AM 26.9541 123.8117 230° Southwest  Level FlightAware Approximate
04:39AM 26.8679 123.6976 230° Southwest  Level FlightAware Approximate
04:40AM 26.7816 123.5836 230° Southwest  Level FlightAware Approximate
04:41AM 26.6951 123.4698 230° Southwest  Level FlightAware Approximate
04:42AM 26.6086 123.3561 229° Southwest  Level FlightAware Approximate
04:42AM 26.6480 123.4130 229° Southwest 460 529 38,000  Level FlightAware
04:42AM 26.5850 123.3310 229° Southwest 459 528 38,000  Level FlightAware
04:43AM 26.5290 123.2570 230° Southwest 457 526 38,000  Level FlightAware
04:44AM 26.4660 123.1750 229° Southwest 456 525 38,000  Level FlightAware
04:44AM 26.4140 123.1070 230° Southwest 455 524 38,000  Level FlightAware
04:45AM 26.3570 123.0330 229° Southwest 455 524 38,000  Level FlightAware
04:46AM 26.2970 122.9540 230° Southwest 454 522 38,000  Level FlightAware
04:47AM 26.2450 122.8850 230° Southwest 454 522 38,000  Level FlightAware
04:47AM 26.1800 122.7990 230° Southwest 454 522 38,000  Level FlightAware
04:48AM 26.1270 122.7290 230° Southwest 453 521 38,000  Level FlightAware
04:49AM 26.0760 122.6610 230° Southwest 450 518 38,000  Level FlightAware
04:49AM 26.0140 122.5800 230° Southwest 449 517 38,000  Level FlightAware
04:50AM 25.9610 122.5110 230° Southwest 449 517 38,000  Level FlightAware
04:51AM 25.8980 122.4300 229° Southwest 449 517 38,000  Level FlightAware
04:51AM 25.8420 122.3610 228° Southwest 447 514 38,000  Level FlightAware
04:52AM 25.7820 122.2860 228° Southwest 447 514 38,000  Level FlightAware
04:53AM 25.7270 122.2170 229° Southwest 447 514 38,000  Level FlightAware
04:54AM 25.6720 122.1480 229° Southwest 449 517 38,000  Level FlightAware
04:54AM 25.6090 122.0690 229° Southwest 451 519 38,000  Level FlightAware
04:55AM 25.5530 121.9990 228° Southwest 452 520 38,000  Level FlightAware
04:56AM 25.5000 121.9300 230° Southwest 453 521 38,000  Level FlightAware
04:56AM 25.4400 121.8540 229° Southwest 453 521 38,000  Level FlightAware
04:57AM 25.3830 121.7820 229° Southwest 452 520 38,000  Level FlightAware
04:58AM 25.3200 121.7030 229° Southwest 451 519 38,000  Level FlightAware
04:58AM 25.2640 121.6320 229° Southwest 450 518 38,000  Level FlightAware
04:59AM 25.2100 121.5640 229° Southwest 448 516 38,000  Level FlightAware
05:00AM 25.1500 121.4890 229° Southwest 448 516 38,000  Level FlightAware
05:01AM 25.0940 121.4210 228° Southwest 449 517 38,000  Level FlightAware
05:01AM 25.0350 121.3500 227° Southwest 449 517 38,000  Level FlightAware
05:02AM 24.9830 121.2870 228° Southwest 449 517 38,000  Level FlightAware
05:03AM 24.9110 121.2000 228° Southwest 450 518 38,000  Level FlightAware
05:03AM 24.8540 121.1310 228° Southwest 453 521 38,000  Level FlightAware
05:04AM 24.7980 121.0630 228° Southwest 455 524 38,000  Level FlightAware
05:05AM 24.7410 120.9950 227° Southwest 457 526 38,000  Level FlightAware
05:05AM 24.6830 120.9250 228° Southwest 458 527 38,000  Level FlightAware
05:06AM 24.6050 120.8320 227° Southwest 460 529 38,000  Level FlightAware
05:07AM 24.5350 120.7480 228° Southwest 460 529 38,000  Level FlightAware
05:08AM 24.4950 120.7010 227° Southwest 458 527 38,000  Level FlightAware
05:08AM 24.4280 120.6200 228° Southwest 455 524 38,000  Level FlightAware
05:09AM 24.3580 120.5370 227° Southwest 452 520 38,000  Level FlightAware
05:10AM 24.3050 120.4740 227° Southwest 448 516 38,000  Level FlightAware
05:11AM 24.2470 120.4050 227° Southwest 445 512 38,000  Level FlightAware
05:11AM 24.1840 120.3300 227° Southwest 446 513 38,000  Level FlightAware
05:12AM 24.1370 120.2740 227° Southwest 447 514 38,000  Level FlightAware
05:13AM 24.0670 120.1910 227° Southwest 449 517 38,000  Level FlightAware
05:13AM 24.0120 120.1270 227° Southwest 450 518 38,000  Level FlightAware
05:14AM 23.9440 120.0460 227° Southwest 450 518 38,000  Level FlightAware
05:15AM 23.8960 119.9900 227° Southwest 450 518 38,000  Level FlightAware
05:15AM 23.8380 119.9220 227° Southwest 450 518 38,000  Level FlightAware
05:16AM 23.7710 119.8440 227° Southwest 451 519 38,000  Level FlightAware
05:17AM 23.7040 119.7640 228° Southwest 451 519 38,000  Level FlightAware
05:18AM 23.6530 119.7050 227° Southwest 452 520 38,000  Level FlightAware
05:18AM 23.5970 119.6350 229° Southwest 449 517 38,000  Level FlightAware
05:19AM 23.5410 119.5430 236° Southwest 447 514 38,000  Level FlightAware
05:20AM 23.4970 119.4680 237° Southwest 447 514 38,000  Level FlightAware
05:20AM 23.4650 119.4120 238° Southwest 448 516 38,000  Level FlightAware
05:21AM 23.4030 119.3040 238° Southwest 448 516 38,000  Level FlightAware
05:22AM 23.3630 119.2360 237° Southwest 448 516 38,000  Level FlightAware
05:22AM 23.3160 119.1560 237° Southwest 448 516 38,000  Level FlightAware
05:23AM 23.2750 119.0870 237° Southwest 447 514 38,000  Level FlightAware
05:24AM 23.2210 118.9940 238° Southwest 447 514 38,000  Level FlightAware
05:24AM 23.1810 118.9260 237° Southwest 446 513 38,000  Level FlightAware
05:25AM 23.1260 118.8330 237° Southwest 447 514 38,000  Level FlightAware
05:26AM 23.0860 118.7640 238° Southwest 449 517 38,000  Level FlightAware
05:27AM 23.0270 118.6630 238° Southwest 449 517 38,000  Level FlightAware
05:27AM 22.9820 118.5870 237° Southwest 449 517 38,000  Level FlightAware
05:28AM 22.9320 118.5020 237° Southwest 450 518 38,000  Level FlightAware
05:29AM 22.8870 118.4270 237° Southwest 450 518 38,000  Level FlightAware
05:29AM 22.8410 118.3500 237° Southwest 450 518 38,000  Level FlightAware
05:30AM 22.7960 118.2740 237° Southwest 452 520 38,000  Level FlightAware
05:31AM 22.7440 118.1870 237° Southwest 452 520 38,000  Level FlightAware
05:32AM 22.6980 118.1100 237° Southwest 452 520 38,000  Level FlightAware
05:32AM 22.6480 118.0280 237° Southwest 452 520 38,000  Level FlightAware
05:33AM 22.6030 117.9530 237° Southwest 452 520 38,000  Level FlightAware
05:34AM 22.5620 117.8830 238° Southwest 453 521 38,000  Level FlightAware
05:34AM 22.5140 117.8030 237° Southwest 451 519 38,000  Level FlightAware
05:35AM 22.4710 117.7300 237° Southwest 451 519 38,000  Level FlightAware
05:36AM 22.4130 117.6330 237° Southwest 448 516 38,000  Level FlightAware
05:36AM 22.3720 117.5650 237° Southwest 446 513 38,000  Level FlightAware
05:37AM 22.3330 117.4990 237° Southwest 446 513 38,000  Level FlightAware
05:38AM 22.2940 117.4350 237° Southwest 446 513 38,000  Level FlightAware
05:38AM 22.2560 117.3720 237° Southwest 446 513 38,000  Level FlightAware
05:39AM 22.2080 117.2920 237° Southwest 446 513 38,000  Level FlightAware
05:40AM 22.1700 117.2290 237° Southwest 446 513 38,000  Level FlightAware
05:41AM 22.1320 117.1650 237° Southwest 446 513 38,000  Level FlightAware
05:42AM 22.3220 116.8870 306° West 444 511 38,000  Level FlightAware
05:42AM 22.3190 116.7930 268° West 445 512 38,000  Level FlightAware
05:43AM 22.3170 116.7170 268° West 445 512 38,000  Level FlightAware
05:44AM 22.3160 116.6160 269° West 448 516 38,000  Level FlightAware
05:45AM 22.3140 116.5070 269° West 449 517 38,000  Level FlightAware
05:45AM 22.3110 116.4250 268° West 449 517 38,000  Level FlightAware
05:46AM 22.3080 116.3300 268° West 449 517 38,000  Level FlightAware
05:47AM 22.3050 116.1810 269° West 452 520 38,000  Level FlightAware
05:48AM 22.3030 116.1040 268° West 452 520 38,000  Level FlightAware
05:48AM 22.3000 116.0270 268° West 452 520 38,000  Level FlightAware
05:49AM 22.2980 115.9500 268° West 452 520 38,000  Level FlightAware
05:50AM 22.2950 115.8540 268° West 452 520 38,000  Level FlightAware
05:50AM 22.2920 115.7770 268° West 452 520 38,000  Level FlightAware
05:51AM 22.2900 115.7010 268° West 452 520 38,000  Level FlightAware
05:52AM 22.2870 115.6240 268° West 452 520 38,000  Level FlightAware
05:52AM 22.2850 115.5470 268° West 452 520 38,000  Level FlightAware
05:53AM 22.2820 115.4510 268° West 452 520 38,000  Level FlightAware
05:54AM 22.2790 115.3740 268° West 452 520 38,000  Level FlightAware
05:55AM 22.2770 115.2980 268° West 452 520 38,000  Level FlightAware
05:55AM 22.2740 115.2210 268° West 452 520 38,000 -20,040 Level FlightAware
05:56AM 22.1670 115.0800 231° Southwest 359 413 18,000 -21,840 Descending FlightAware
05:56AM 22.1480 115.0280 248° West 358 412 18,000  Level FlightAware
05:57AM 22.1280 114.9710 249° West 358 412 18,000  Level FlightAware
05:58AM 22.1030 114.9000 249° West 358 412 18,000  Level FlightAware
05:58AM 22.0830 114.8430 249° West 358 412 18,000  Level FlightAware
05:59AM 22.0620 114.7860 248° West 358 412 18,000 -720 Level FlightAware
06:02AM 22.1589 114.4465 287° West  Level Estimated
06:03AM 22.1979 114.3087 287° West  Level Estimated
06:03AM 22.0150 114.4410 287° West 14,000  Level FlightAware
06:04AM 22.0180 114.3700 273° West 288 331 14,000 -120 Level FlightAware
06:05AM 22.0210 114.3290 275° West 286 329 13,900 -1,140 Descending FlightAware
06:05AM 22.0240 114.2560 273° West 288 331 12,400 -1,620 Descending FlightAware
06:06AM 22.0270 114.2040 274° West 289 333 11,500 -1,680 Descending FlightAware
06:07AM 22.0310 114.1300 273° West 289 333 10,100 -1,440 Descending FlightAware
06:07AM 22.0320 114.1030 272° West 287 330 9,700 -660 Descending FlightAware
06:08AM 22.0340 114.0520 272° West 286 329 9,400 -1,440 Descending FlightAware
06:08AM 22.0200 114.0340 230° Southwest 278 320 8,500 -1,980 Descending FlightAware
06:09AM 22.0060 113.9850 253° West 257 296 8,100 -840 Descending FlightAware
06:10AM 21.9850 113.9090 253° West 249 287 7,300 -1,080 Descending FlightAware
06:10AM 22.0010 113.8930 317° Northwest 266 306 6,600 -1,440 Descending FlightAware
06:10AM 22.0160 113.8690 304° West 269 310 6,100 -600 Descending FlightAware
06:11AM 22.0330 113.8420 304° West 269 310 6,100 -960 Level FlightAware
06:14AM 22.3089 113.9146 14° North  Level Estimated
06:14AM 22.1770 113.7340 14° North 212 244 3,200  Level FlightAware
06:14AM 22.2040 113.7310 354° North 212 244 3,200  Level FlightAware